Time;durP1;ratioP1;P1;durP2;ratioP2;P2;SDS_P1;SDS_P2;PMS_P1;PMS_P2;Temp;Humidity;BMP_temperature;BMP_pressure;BME280_temperature;BME280_humidity;BME280_pressure;Samples;Min_cycle;Max_cycle;Signal;HPM_P1;HPM_P2
2023/11/16 00:02:05;;;;;;;;;;;;;;;20.77;32.90;97459.97;5020283;28;1109;-75
2023/11/16 00:04:34;;;;;;;;;;;;;;;21.01;32.83;97466.06;5036494;28;1248;-75
2023/11/16 00:07:00;;;;;;;;;;;;;;;21.01;32.77;97475.34;5037917;28;880;-75
2023/11/16 00:09:27;;;;;;;;;;;;;;;20.85;32.49;97477.50;5018360;28;1981;-76
2023/11/16 00:11:52;;;;;;;;;;;;;;;21.19;32.23;97486.09;5002446;28;1285;-76
2023/11/16 00:14:18;;;;;;;;;;;;;;;21.25;32.33;97487.09;4979628;28;1138;-75
2023/11/16 00:16:44;;;;;;;;;;;;;;;21.60;32.72;97481.50;4995800;28;969;-76
2023/11/16 00:19:10;;;;;;;;;;;;;;;21.82;32.64;97476.66;4979231;28;1061;-75
2023/11/16 00:21:36;;;;;;;;;;;;;;;21.76;33.04;97484.19;4995529;28;987;-75
2023/11/16 00:24:05;;;;;;;;;;;;;;;21.47;32.94;97477.91;4979522;28;1399;-75
2023/11/16 00:26:33;;;;;;;;;;;;;;;21.13;33.11;97476.56;4980113;28;931;-75
2023/11/16 00:29:00;;;;;;;;;;;;;;;20.97;33.21;97468.22;4960130;28;1975;-75
2023/11/16 00:31:26;;;;;;;;;;;;;;;20.91;33.00;97470.03;4944171;28;960;-76
2023/11/16 00:33:52;;;;;;;;;;;;;;;21.12;32.49;97469.34;4976058;28;998;-75
2023/11/16 00:36:18;;;;;;;;;;;;;;;21.19;32.41;97468.31;4976292;28;920;-75
2023/11/16 00:38:43;;;;;;;;;;;;;;;20.95;32.66;97459.41;4959804;28;1051;-75
2023/11/16 00:41:13;;;;;;;;;;;;;;;20.93;32.73;97459.06;4960076;28;1000;-75
2023/11/16 00:43:39;;;;;;;;;;;;;;;20.90;32.60;97459.97;4959718;28;1150;-76
2023/11/16 00:46:05;;;;;;;;;;;;;;;20.69;32.73;97450.94;4992042;28;1188;-75
2023/11/16 00:48:34;;;;;;;;;;;;;;;20.92;32.27;97455.44;4994949;28;1911;-75
2023/11/16 00:50:59;;;;;;;;;;;;;;;20.94;32.39;97463.50;4979024;28;1721;-75
2023/11/16 00:53:25;;;;;;;;;;;;;;;20.94;32.45;97463.50;4978819;28;1131;-75
2023/11/16 00:55:51;;;;;;;;;;;;;;;21.07;31.85;97456.56;4995270;28;936;-75
2023/11/16 00:58:17;;;;;;;;;;;;;;;21.14;31.60;97455.56;4995289;28;1013;-75
2023/11/16 01:00:42;;;;;;;;;;;;;;;21.17;31.50;97448.97;4994740;28;1551;-75
2023/11/16 01:03:09;;;;;;;;;;;;;;;20.76;32.15;97453.53;4994877;28;1137;-76
2023/11/16 01:05:35;;;;;;;;;;;;;;;20.89;32.15;97461.22;5001306;28;953;-75
2023/11/16 01:08:00;;;;;;;;;;;;;;;20.97;31.74;97465.41;5019147;28;1906;-75
2023/11/16 01:10:29;;;;;;;;;;;;;;;21.10;32.27;97466.19;5034458;28;1143;-75
2023/11/16 01:12:55;;;;;;;;;;;;;;;21.50;32.28;97471.31;5001574;28;1004;-76
2023/11/16 01:15:23;;;;;;;;;;;;;;;21.46;33.12;97476.34;5017866;28;1141;-75
2023/11/16 01:17:50;;;;;;;;;;;;;;;21.70;33.00;97466.16;5017820;28;1203;-76
2023/11/16 01:20:19;;;;;;;;;;;;;;;21.66;32.86;97479.69;5017538;28;1325;-75
2023/11/16 01:22:50;;;;;;;;;;;;;;;21.08;33.58;97491.28;5018165;28;922;-75
2023/11/16 01:25:16;;;;;;;;;;;;;;;21.25;32.59;97501.25;5018445;28;1315;-75
2023/11/16 01:27:50;;;;;;;;;;;;;;;20.87;32.86;97506.13;5034077;28;953;-75
2023/11/16 01:30:16;;;;;;;;;;;;;;;20.90;33.00;97513.72;5017534;28;1244;-76
2023/11/16 01:32:41;;;;;;;;;;;;;;;20.88;33.03;97514.19;5001022;28;1068;-75
2023/11/16 01:35:07;;;;;;;;;;;;;;;20.81;32.71;97509.50;5034138;28;1146;-75
2023/11/16 01:37:34;;;;;;;;;;;;;;;20.70;32.88;97494.91;4984859;28;1308;-76
2023/11/16 01:40:00;;;;;;;;;;;;;;;20.51;33.10;97491.03;5001065;28;934;-75
2023/11/16 01:42:25;;;;;;;;;;;;;;;20.72;32.70;97485.97;5033577;28;957;-76
2023/11/16 01:44:51;;;;;;;;;;;;;;;21.23;31.70;97489.56;5018166;28;1128;-75
2023/11/16 01:47:16;;;;;;;;;;;;;;;20.96;32.24;97480.78;5036131;28;916;-75
2023/11/16 01:49:43;;;;;;;;;;;;;;;20.97;32.23;97469.00;5036166;28;1910;-75
2023/11/16 01:52:09;;;;;;;;;;;;;;;21.02;31.82;97442.19;5017422;28;1143;-75
2023/11/16 01:54:35;;;;;;;;;;;;;;;20.97;32.25;97434.28;5034553;28;935;-75
2023/11/16 01:57:00;;;;;;;;;;;;;;;20.94;32.37;97438.03;5018363;28;1151;-75
2023/11/16 01:59:26;;;;;;;;;;;;;;;21.37;31.72;97440.25;5018046;28;1087;-75
2023/11/16 02:01:52;;;;;;;;;;;;;;;21.17;32.18;97443.31;5018427;28;1241;-75
2023/11/16 02:04:19;;;;;;;;;;;;;;;20.83;32.64;97446.06;5036054;28;1343;-75
2023/11/16 02:06:44;;;;;;;;;;;;;;;20.94;32.48;97452.97;5016880;28;1242;-75
2023/11/16 02:09:10;;;;;;;;;;;;;;;21.05;32.12;97455.44;5033492;28;1902;-75
2023/11/16 02:11:35;;;;;;;;;;;;;;;21.21;31.74;97449.63;5000324;28;973;-75
2023/11/16 02:14:02;;;;;;;;;;;;;;;21.62;31.29;97449.91;4984401;28;1104;-75
2023/11/16 02:16:28;;;;;;;;;;;;;;;21.39;31.96;97442.59;5033237;28;1319;-76
2023/11/16 02:18:54;;;;;;;;;;;;;;;21.70;31.64;97457.66;5034227;28;967;-76
2023/11/16 02:21:20;;;;;;;;;;;;;;;21.50;31.59;97465.66;5021056;28;1138;-76
2023/11/16 02:23:48;;;;;;;;;;;;;;;21.06;32.55;97471.16;5020730;28;963;-75
2023/11/16 02:26:13;;;;;;;;;;;;;;;21.11;32.16;97475.47;5037041;28;1036;-75
2023/11/16 02:28:39;;;;;;;;;;;;;;;20.93;32.49;97490.16;5037484;28;1981;-76
2023/11/16 02:31:06;;;;;;;;;;;;;;;20.92;32.27;97488.59;5037450;28;1056;-76
2023/11/16 02:33:32;;;;;;;;;;;;;;;21.45;31.59;97469.06;5020491;28;1150;-75
2023/11/16 02:35:57;;;;;;;;;;;;;;;21.61;31.52;97460.44;5036957;28;944;-75
2023/11/16 02:38:23;;;;;;;;;;;;;;;21.11;32.34;97467.75;5036023;28;950;-76
2023/11/16 02:40:52;;;;;;;;;;;;;;;20.90;32.29;97474.91;5040351;28;1156;-75
2023/11/16 02:43:18;;;;;;;;;;;;;;;20.90;32.25;97480.56;5040816;28;1083;-75
2023/11/16 02:45:44;;;;;;;;;;;;;;;20.72;32.08;97500.91;5040293;28;999;-75
2023/11/16 02:48:09;;;;;;;;;;;;;;;20.95;31.47;97510.31;5037132;28;1975;-75
2023/11/16 02:50:35;;;;;;;;;;;;;;;20.66;32.17;97507.56;5037676;28;946;-75
2023/11/16 02:53:00;;;;;;;;;;;;;;;20.90;31.37;97508.84;5021508;28;1108;-76
2023/11/16 02:55:26;;;;;;;;;;;;;;;21.29;31.30;97501.13;5038714;28;924;-75
2023/11/16 02:57:55;;;;;;;;;;;;;;;21.44;31.27;97510.75;5036361;28;993;-75
2023/11/16 03:00:20;;;;;;;;;;;;;;;21.49;31.23;97526.34;5004163;28;1372;-75
2023/11/16 03:02:46;;;;;;;;;;;;;;;21.04;31.81;97518.94;5036596;28;1073;-75
2023/11/16 03:05:12;;;;;;;;;;;;;;;20.99;31.61;97516.66;5016676;28;1352;-75
2023/11/16 03:07:38;;;;;;;;;;;;;;;20.59;32.34;97510.63;4984257;28;1184;-76
2023/11/16 03:10:04;;;;;;;;;;;;;;;20.77;31.94;97528.63;5000082;28;1895;-75
2023/11/16 03:12:30;;;;;;;;;;;;;;;21.36;31.51;97531.25;5000520;28;939;-75
2023/11/16 03:14:56;;;;;;;;;;;;;;;21.69;31.76;97531.75;5000411;28;1029;-75
2023/11/16 03:17:22;;;;;;;;;;;;;;;21.96;31.81;97549.00;5000168;28;1162;-75
2023/11/16 03:19:48;;;;;;;;;;;;;;;21.82;32.16;97558.81;5016385;28;1179;-75
2023/11/16 03:22:13;;;;;;;;;;;;;;;21.44;33.35;97564.53;4999965;28;977;-75
2023/11/16 03:24:39;;;;;;;;;;;;;;;21.29;32.97;97578.31;5000112;28;1006;-75
2023/11/16 03:27:05;;;;;;;;;;;;;;;21.13;32.72;97577.63;5016113;28;982;-75
2023/11/16 03:29:34;;;;;;;;;;;;;;;21.01;32.52;97574.34;4983868;28;1889;-75
2023/11/16 03:31:59;;;;;;;;;;;;;;;21.19;31.90;97582.28;4995154;28;980;-76
2023/11/16 03:34:25;;;;;;;;;;;;;;;21.07;32.11;97580.22;4996667;28;1230;-75
2023/11/16 03:36:51;;;;;;;;;;;;;;;21.14;31.61;97584.88;5015194;28;1259;-75
2023/11/16 03:39:17;;;;;;;;;;;;;;;20.93;32.18;97575.00;5015694;28;1004;-75
2023/11/16 03:41:43;;;;;;;;;;;;;;;20.72;32.37;97591.38;5016232;28;965;-75
2023/11/16 03:44:08;;;;;;;;;;;;;;;20.85;32.02;97596.28;4999819;28;1144;-75
2023/11/16 03:46:34;;;;;;;;;;;;;;;20.95;31.89;97600.81;4999871;28;1081;-75
2023/11/16 03:48:59;;;;;;;;;;;;;;;20.93;32.04;97597.63;4999671;28;1914;-75
2023/11/16 03:51:29;;;;;;;;;;;;;;;20.59;32.48;97606.75;4999492;28;1008;-75
2023/11/16 03:53:56;;;;;;;;;;;;;;;20.78;32.16;97620.69;4995962;28;1161;-76
2023/11/16 03:56:22;;;;;;;;;;;;;;;20.77;32.25;97619.09;4980224;28;982;-75
2023/11/16 03:58:47;;;;;;;;;;;;;;;20.74;31.99;97622.03;4979885;28;1142;-75
2023/11/16 04:01:13;;;;;;;;;;;;;;;20.91;31.73;97628.41;4980074;28;1025;-75
2023/11/16 04:03:39;;;;;;;;;;;;;;;20.92;31.65;97641.31;4979736;28;1120;-76
2023/11/16 04:06:04;;;;;;;;;;;;;;;20.98;31.68;97640.28;4995988;28;992;-76
2023/11/16 04:08:30;;;;;;;;;;;;;;;20.66;31.82;97646.88;4979872;28;1991;-75
2023/11/16 04:10:56;;;;;;;;;;;;;;;20.97;31.60;97649.22;4994780;28;1074;-75
2023/11/16 04:13:22;;;;;;;;;;;;;;;20.52;32.02;97647.28;4999668;28;964;-75
2023/11/16 04:15:48;;;;;;;;;;;;;;;20.91;31.78;97645.38;4999030;28;1030;-75
2023/11/16 04:18:13;;;;;;;;;;;;;;;21.38;31.59;97636.31;4983009;28;1099;-75
2023/11/16 04:20:39;;;;;;;;;;;;;;;21.30;32.32;97639.38;4982874;28;1240;-75
2023/11/16 04:23:05;;;;;;;;;;;;;;;21.44;32.31;97637.31;4975849;28;949;-75
2023/11/16 04:25:33;;;;;;;;;;;;;;;21.45;32.66;97644.56;4974723;28;1077;-75
2023/11/16 04:28:04;;;;;;;;;;;;;;;21.64;32.56;97640.72;4995482;28;1910;-76
2023/11/16 04:30:34;;;;;;;;;;;;;;;21.40;32.29;97636.63;4963386;28;1257;-75
2023/11/16 04:33:00;;;;;;;;;;;;;;;20.83;32.85;97638.34;4959805;28;999;-75
2023/11/16 04:35:26;;;;;;;;;;;;;;;20.99;32.31;97644.72;4959960;28;970;-76
2023/11/16 04:37:53;;;;;;;;;;;;;;;20.93;32.14;97645.72;4975850;28;1015;-75
2023/11/16 04:40:19;;;;;;;;;;;;;;;21.11;31.83;97637.50;4976109;28;1024;-76
2023/11/16 04:42:47;;;;;;;;;;;;;;;20.96;32.02;97653.31;4959384;28;941;-76
2023/11/16 04:45:14;;;;;;;;;;;;;;;20.95;31.91;97669.50;4975845;28;1047;-75
2023/11/16 04:47:44;;;;;;;;;;;;;;;21.27;31.95;97662.88;4975278;28;1040;-76
2023/11/16 04:50:10;;;;;;;;;;;;;;;21.30;32.15;97676.16;4943657;28;1981;-75
2023/11/16 04:52:36;;;;;;;;;;;;;;;21.13;32.33;97683.09;4943641;28;1193;-75
2023/11/16 04:55:02;;;;;;;;;;;;;;;21.12;32.13;97678.69;4959946;28;1093;-74
2023/11/16 04:57:28;;;;;;;;;;;;;;;20.87;32.52;97678.63;4975476;28;971;-74
2023/11/16 04:59:54;;;;;;;;;;;;;;;21.05;32.48;97679.69;4959219;28;990;-75
2023/11/16 05:02:20;;;;;;;;;;;;;;;20.84;32.49;97673.88;4959622;28;972;-75
2023/11/16 05:04:46;;;;;;;;;;;;;;;21.17;32.17;97674.50;4994960;28;1159;-75
2023/11/16 05:07:12;;;;;;;;;;;;;;;21.01;32.41;97672.56;4982307;28;963;-75
2023/11/16 05:09:38;;;;;;;;;;;;;;;21.61;31.45;97663.50;5014851;28;1907;-75
2023/11/16 05:12:04;;;;;;;;;;;;;;;21.35;31.93;97668.31;4998233;28;1116;-75
2023/11/16 05:14:29;;;;;;;;;;;;;;;21.03;32.07;97670.06;5014162;28;964;-75
2023/11/16 05:16:55;;;;;;;;;;;;;;;20.98;31.99;97679.09;4998071;28;1509;-74
2023/11/16 05:19:20;;;;;;;;;;;;;;;21.02;32.07;97679.78;5031646;28;974;-74
2023/11/16 05:21:47;;;;;;;;;;;;;;;21.09;31.93;97690.91;5018870;28;1127;-74
2023/11/16 05:24:12;;;;;;;;;;;;;;;21.33;31.76;97697.88;5035141;28;999;-74
2023/11/16 05:26:38;;;;;;;;;;;;;;;21.23;31.79;97706.66;5035958;28;1087;-75
2023/11/16 05:29:04;;;;;;;;;;;;;;;20.78;32.12;97697.03;5035164;28;1894;-75
2023/11/16 05:31:30;;;;;;;;;;;;;;;20.66;32.62;97702.63;5034922;28;1255;-74
2023/11/16 05:33:55;;;;;;;;;;;;;;;21.21;31.60;97712.78;5035031;28;986;-74
2023/11/16 05:36:21;;;;;;;;;;;;;;;21.28;31.33;97704.06;5018793;28;1148;-75
2023/11/16 05:38:47;;;;;;;;;;;;;;;21.43;31.24;97706.50;5035286;28;939;-74
2023/11/16 05:41:13;;;;;;;;;;;;;;;21.06;31.78;97703.13;4997399;28;1194;-75
2023/11/16 05:43:39;;;;;;;;;;;;;;;21.11;31.32;97716.72;4981288;28;1567;-74
2023/11/16 05:46:05;;;;;;;;;;;;;;;21.08;31.23;97712.72;4997701;28;951;-75
2023/11/16 05:48:31;;;;;;;;;;;;;;;20.91;31.36;97731.00;4997227;28;1903;-74
2023/11/16 05:50:57;;;;;;;;;;;;;;;21.04;31.05;97736.72;5013839;28;1002;-74
2023/11/16 05:53:23;;;;;;;;;;;;;;;21.43;30.60;97743.28;4997208;28;1027;-74
2023/11/16 05:55:48;;;;;;;;;;;;;;;21.19;30.97;97746.41;4997618;28;936;-74
2023/11/16 05:58:14;;;;;;;;;;;;;;;21.58;30.81;97750.13;4997391;28;993;-74
2023/11/16 06:00:39;;;;;;;;;;;;;;;21.79;30.53;97760.00;5013803;28;1212;-75
2023/11/16 06:03:05;;;;;;;;;;;;;;;21.26;30.95;97768.81;4997070;28;1192;-75
2023/11/16 06:05:32;;;;;;;;;;;;;;;21.08;31.43;97774.19;4997260;28;1000;-75
2023/11/16 06:07:57;;;;;;;;;;;;;;;21.11;31.10;97790.28;4997454;28;1024;-74
2023/11/16 06:10:23;;;;;;;;;;;;;;;21.20;30.87;97786.81;4997128;28;1397;-74
2023/11/16 06:12:48;;;;;;;;;;;;;;;21.11;31.03;97801.59;5030408;28;948;-75
2023/11/16 06:15:18;;;;;;;;;;;;;;;21.40;30.51;97801.63;5034564;28;1272;-75
2023/11/16 06:17:44;;;;;;;;;;;;;;;20.86;31.58;97805.09;5033895;28;1016;-75
2023/11/16 06:20:10;;;;;;;;;;;;;;;21.51;30.43;97813.41;5043486;28;1490;-74
2023/11/16 06:22:36;;;;;;;;;;;;;;;21.41;30.35;97816.56;5053254;28;988;-75
2023/11/16 06:25:04;;;;;;;;;;;;;;;21.59;29.95;97820.44;5020291;28;1092;-75
2023/11/16 06:27:33;;;;;;;;;;;;;;;21.38;30.38;97820.28;5036392;28;1391;-75
2023/11/16 06:29:59;;;;;;;;;;;;;;;21.29;30.79;97824.50;5036482;28;1905;-75
2023/11/16 06:32:24;;;;;;;;;;;;;;;21.49;30.33;97832.06;5036648;28;1060;-74
2023/11/16 06:34:50;;;;;;;;;;;;;;;21.69;29.97;97835.53;5019886;28;1099;-74
2023/11/16 06:37:16;;;;;;;;;;;;;;;21.61;29.99;97834.16;5036475;28;1092;-75
2023/11/16 06:39:42;;;;;;;;;;;;;;;21.74;30.02;97832.13;5036792;28;973;-75
2023/11/16 06:42:07;;;;;;;;;;;;;;;21.75;30.01;97832.94;5019927;28;960;-74
2023/11/16 06:44:33;;;;;;;;;;;;;;;21.70;30.24;97837.09;5053329;28;973;-75
2023/11/16 06:46:58;;;;;;;;;;;;;;;22.00;29.68;97837.84;5036689;28;991;-75
2023/11/16 06:49:27;;;;;;;;;;;;;;;21.43;30.25;97839.53;5019722;28;1906;-74
2023/11/16 06:51:53;;;;;;;;;;;;;;;21.91;29.78;97832.06;5048255;28;1599;-74
2023/11/16 06:54:21;;;;;;;;;;;;;;;21.96;29.58;97831.50;5026710;28;1502;-74
2023/11/16 06:56:49;;;;;;;;;;;;;;;21.26;30.46;97845.22;5045418;28;1552;-75
2023/11/16 06:59:19;;;;;;;;;;;;;;;21.21;30.39;97845.75;5018167;28;981;-75
2023/11/16 07:01:45;;;;;;;;;;;;;;;21.89;30.08;97849.50;5510362;22;3525;-72
2023/11/16 07:04:11;;;;;;;;;;;;;;;22.50;29.89;97845.59;5202425;22;3497;-75
2023/11/16 07:06:37;;;;;;;;;;;;;;;22.74;29.80;97840.34;5057387;28;1082;-75
2023/11/16 07:09:03;;;;;;;;;;;;;;;22.06;30.18;97844.53;5058321;28;1198;-74
2023/11/16 07:11:28;;;;;;;;;;;;;;;21.73;29.97;97844.72;5041500;28;1010;-75
2023/11/16 07:13:54;;;;;;;;;;;;;;;21.42;30.08;97844.41;5057724;28;947;-74
2023/11/16 07:16:21;;;;;;;;;;;;;;;21.38;30.44;97845.75;5057856;28;1198;-75
2023/11/16 07:18:47;;;;;;;;;;;;;;;21.22;30.80;97847.34;5041138;28;1906;-74
2023/11/16 07:21:14;;;;;;;;;;;;;;;21.10;31.07;97853.75;5058296;28;954;-74
2023/11/16 07:23:41;;;;;;;;;;;;;;;20.79;33.19;97862.63;5041223;28;933;-75
2023/11/16 07:26:08;;;;;;;;;;;;;;;22.02;31.40;97869.34;5057640;28;975;-74
2023/11/16 07:28:34;;;;;;;;;;;;;;;22.43;30.78;97877.00;5057520;28;1005;-75
2023/11/16 07:31:01;;;;;;;;;;;;;;;21.61;31.37;97876.63;5057867;28;1029;-75
2023/11/16 07:33:27;;;;;;;;;;;;;;;21.43;31.26;97879.16;5040533;28;998;-75
2023/11/16 07:35:53;;;;;;;;;;;;;;;21.16;31.25;97877.44;5057862;28;905;-74
2023/11/16 07:38:20;;;;;;;;;;;;;;;20.73;31.86;97878.53;5058988;28;1980;-74
2023/11/16 07:40:45;;;;;;;;;;;;;;;21.17;32.76;97881.84;5057227;28;1046;-74
2023/11/16 07:43:10;;;;;;;;;;;;;;;21.87;31.87;97890.88;5057535;28;1098;-76
2023/11/16 07:45:37;;;;;;;;;;;;;;;22.47;30.86;97888.22;5058416;28;941;-75
2023/11/16 07:48:04;;;;;;;;;;;;;;;22.15;30.43;97886.41;5058200;28;1074;-75
2023/11/16 07:50:31;;;;;;;;;;;;;;;21.44;31.22;97881.53;5057542;28;978;-74
2023/11/16 07:52:59;;;;;;;;;;;;;;;21.03;31.60;97885.03;5057175;28;1011;-74
2023/11/16 07:55:25;;;;;;;;;;;;;;;21.05;31.24;97885.41;5058734;28;902;-75
2023/11/16 07:57:52;;;;;;;;;;;;;;;21.30;31.57;97888.41;5057214;28;1115;-74
2023/11/16 08:00:30;;;;;;;;;;;;;;;21.27;32.13;97896.94;5040605;28;1906;-75
2023/11/16 08:05:43;;;;;;;;;;;;;;;21.33;31.86;97910.13;5002291;28;1143;-75
2023/11/16 08:08:13;;;;;;;;;;;;;;;21.55;31.72;97918.03;4999588;28;957;-75
2023/11/16 08:10:44;;;;;;;;;;;;;;;21.63;31.60;97922.28;5000384;28;1127;-75
2023/11/16 08:13:10;;;;;;;;;;;;;;;21.46;31.41;97929.22;4999880;28;933;-74
2023/11/16 08:15:39;;;;;;;;;;;;;;;21.35;31.47;97928.69;5000032;28;1003;-74
2023/11/16 08:18:06;;;;;;;;;;;;;;;20.96;31.88;97927.66;5035124;28;1981;-75
2023/11/16 08:20:32;;;;;;;;;;;;;;;20.89;31.48;97925.03;5019207;28;1119;-75
2023/11/16 08:22:57;;;;;;;;;;;;;;;20.81;32.23;97930.84;5035606;28;1170;-74
2023/11/16 08:25:23;;;;;;;;;;;;;;;21.12;32.05;97933.31;5024913;28;1474;-75
2023/11/16 08:27:51;;;;;;;;;;;;;;;21.38;31.44;97942.75;5009982;28;1707;-75
2023/11/16 08:30:17;;;;;;;;;;;;;;;21.20;31.96;97946.03;4991678;28;1793;-74
2023/11/16 08:32:44;;;;;;;;;;;;;;;21.69;30.77;97940.31;5009318;28;1654;-74
2023/11/16 08:35:10;;;;;;;;;;;;;;;21.45;31.18;97955.94;5021180;28;1581;-76
2023/11/16 08:37:36;;;;;;;;;;;;;;;21.36;31.03;97955.78;5044614;28;1723;-75
2023/11/16 08:40:03;;;;;;;;;;;;;;;21.44;30.90;97957.97;5048334;28;1906;-76
2023/11/16 08:42:35;;;;;;;;;;;;;;;21.23;30.54;97961.31;5028126;28;1680;-76
2023/11/16 08:45:02;;;;;;;;;;;;;;;21.07;30.92;97959.31;5019355;28;1455;-76
2023/11/16 08:47:27;;;;;;;;;;;;;;;21.17;30.75;97966.72;5034829;28;1095;-76
2023/11/16 08:49:53;;;;;;;;;;;;;;;21.29;31.02;97963.16;5018457;28;1075;-76
2023/11/16 08:52:21;;;;;;;;;;;;;;;21.22;31.10;97959.75;5034926;28;965;-74
2023/11/16 08:54:47;;;;;;;;;;;;;;;21.30;30.80;97959.16;5054318;28;1267;-74
2023/11/16 08:57:13;;;;;;;;;;;;;;;21.52;30.37;97955.75;5037945;28;1331;-74
2023/11/16 08:59:58;;;;;;;;;;;;;;;21.73;30.23;97954.38;5054224;28;1902;-73
2023/11/16 09:02:24;;;;;;;;;;;;;;;21.43;30.12;97953.56;5054472;28;980;-74
2023/11/16 09:04:50;;;;;;;;;;;;;;;21.39;30.12;97963.38;5054426;28;1049;-73
2023/11/16 09:07:16;;;;;;;;;;;;;;;21.10;30.35;97961.25;5037615;28;919;-74
2023/11/16 09:09:45;;;;;;;;;;;;;;;21.08;30.37;97958.84;5054491;28;901;-75
2023/11/16 09:12:12;;;;;;;;;;;;;;;21.21;30.72;97947.63;5054361;28;994;-76
2023/11/16 09:14:40;;;;;;;;;;;;;;;21.46;30.11;97949.03;5054140;28;1108;-76
2023/11/16 09:17:16;;;;;;;;;;;;;;;21.26;30.33;97949.94;5037660;28;966;-76
2023/11/16 09:19:42;;;;;;;;;;;;;;;21.22;30.50;97957.72;5037320;28;1906;-76
2023/11/16 09:22:09;;;;;;;;;;;;;;;21.27;30.33;97957.16;5021447;28;972;-76
2023/11/16 09:24:37;;;;;;;;;;;;;;;21.63;29.68;97952.63;5037701;28;1029;-75
2023/11/16 09:27:04;;;;;;;;;;;;;;;21.48;29.84;97944.50;5019118;28;912;-75
2023/11/16 09:29:30;;;;;;;;;;;;;;;21.30;30.18;97939.34;5034562;28;972;-76
2023/11/16 09:31:56;;;;;;;;;;;;;;;21.08;30.03;97939.06;5035299;28;1036;-75
2023/11/16 09:34:21;;;;;;;;;;;;;;;20.84;30.46;97942.53;5035094;28;1018;-76
2023/11/16 09:36:50;;;;;;;;;;;;;;;20.53;31.26;97943.63;5035223;28;1175;-75
2023/11/16 09:39:16;;;;;;;;;;;;;;;21.27;30.28;97948.69;5051540;28;1910;-73
2023/11/16 09:41:42;;;;;;;;;;;;;;;21.40;30.18;97947.97;5035339;28;965;-73
2023/11/16 09:44:07;;;;;;;;;;;;;;;21.45;29.88;97944.59;5035301;28;1165;-74
2023/11/16 09:46:33;;;;;;;;;;;;;;;21.64;29.53;97935.19;5034824;28;1408;-74
2023/11/16 09:48:58;;;;;;;;;;;;;;;21.41;29.93;97941.88;5034762;28;938;-73
2023/11/16 09:51:25;;;;;;;;;;;;;;;21.37;30.16;97943.22;5051591;28;1755;-73
2023/11/16 09:53:51;;;;;;;;;;;;;;;21.12;30.05;97944.63;5034868;28;1206;-73
2023/11/16 09:56:19;;;;;;;;;;;;;;;21.12;30.22;97933.31;5034885;28;998;-73
2023/11/16 09:58:47;;;;;;;;;;;;;;;21.03;30.32;97948.06;5013758;28;1977;-73
2023/11/16 10:01:14;;;;;;;;;;;;;;;21.33;31.54;97932.78;4997858;28;1211;-73
2023/11/16 10:03:40;;;;;;;;;;;;;;;21.88;31.74;97940.59;5022559;28;1760;-74
2023/11/16 10:06:10;;;;;;;;;;;;;;;21.62;31.78;97937.69;5017390;28;991;-74
2023/11/16 10:08:38;;;;;;;;;;;;;;;21.84;31.63;97952.81;5033580;28;971;-74
2023/11/16 10:11:07;;;;;;;;;;;;;;;21.70;31.92;97949.59;5033756;28;985;-74
2023/11/16 10:13:33;;;;;;;;;;;;;;;21.59;32.32;97938.56;5016982;28;1063;-74
2023/11/16 10:16:00;;;;;;;;;;;;;;;21.86;31.83;97941.03;4996411;28;1694;-74
2023/11/16 10:18:25;;;;;;;;;;;;;;;21.82;31.34;97929.81;5013898;28;1906;-74
2023/11/16 10:20:51;;;;;;;;;;;;;;;21.38;31.38;97925.78;5013878;28;966;-74
2023/11/16 10:23:23;;;;;;;;;;;;;;;21.29;31.58;97929.22;5013616;28;1118;-74
2023/11/16 10:25:48;;;;;;;;;;;;;;;20.91;31.70;97928.19;5013485;28;1021;-74
2023/11/16 10:28:17;;;;;;;;;;;;;;;20.97;31.64;97929.25;4997393;28;1683;-74
2023/11/16 10:30:46;;;;;;;;;;;;;;;20.98;32.11;97916.69;5031579;28;926;-74
2023/11/16 10:33:11;;;;;;;;;;;;;;;21.30;31.74;97916.72;5033755;28;1044;-74
2023/11/16 10:35:38;;;;;;;;;;;;;;;21.34;31.99;97925.06;5033349;28;976;-74
2023/11/16 10:38:04;;;;;;;;;;;;;;;21.44;31.69;97926.03;5033239;28;1322;-75
2023/11/16 10:40:30;;;;;;;;;;;;;;;21.33;31.75;97921.47;5034411;28;1905;-74
2023/11/16 10:42:56;;;;;;;;;;;;;;;21.11;31.65;97926.06;5037475;28;1012;-74
2023/11/16 10:45:22;;;;;;;;;;;;;;;21.43;30.91;97924.44;5037164;28;939;-75
2023/11/16 10:47:47;;;;;;;;;;;;;;;21.27;31.00;97923.22;5037300;28;976;-74
2023/11/16 10:50:16;;;;;;;;;;;;;;;21.36;30.49;97921.81;5019909;28;1566;-74
2023/11/16 10:52:42;;;;;;;;;;;;;;;20.94;31.14;97927.31;5025820;28;1580;-75
2023/11/16 10:55:21;;;;;;;;;;;;;;;21.20;30.70;97926.25;5024488;28;1772;-74
2023/11/16 10:58:00;;;;;;;;;;;;;;;21.28;30.11;97921.16;5056497;28;1441;-74
2023/11/16 11:00:29;;;;;;;;;;;;;;;20.88;30.83;97923.41;5056103;28;1906;-74
2023/11/16 11:02:56;;;;;;;;;;;;;;;21.09;31.03;97914.41;5039761;28;1688;-74
2023/11/16 11:05:22;;;;;;;;;;;;;;;21.28;30.54;97918.34;5039743;28;1623;-75
2023/11/16 11:07:47;;;;;;;;;;;;;;;21.12;30.80;97907.84;5023447;28;1643;-74
2023/11/16 11:10:13;;;;;;;;;;;;;;;21.46;29.95;97921.53;5056544;28;1583;-74
2023/11/16 11:12:41;;;;;;;;;;;;;;;21.44;29.73;97924.00;5056026;28;1664;-74
2023/11/16 11:15:11;;;;;;;;;;;;;;;21.26;29.99;97921.63;5039637;28;1525;-74
2023/11/16 11:17:40;;;;;;;;;;;;;;;21.20;29.58;97936.75;5039936;28;1624;-74
2023/11/16 11:20:09;;;;;;;;;;;;;;;21.27;29.52;97936.56;5019902;28;1968;-74
2023/11/16 11:22:36;;;;;;;;;;;;;;;21.13;29.98;97945.41;5036251;28;919;-75
2023/11/16 11:25:05;;;;;;;;;;;;;;;21.47;29.60;97944.97;4996909;28;1163;-74
2023/11/16 11:27:31;;;;;;;;;;;;;;;21.22;29.61;97943.56;4980645;28;1012;-74
2023/11/16 11:30:06;;;;;;;;;;;;;;;21.45;29.58;97944.59;4996935;28;1105;-74
2023/11/16 11:32:32;;;;;;;;;;;;;;;21.41;29.21;97956.03;4995870;28;1077;-74
2023/11/16 11:34:57;;;;;;;;;;;;;;;20.81;29.99;97952.66;4996535;28;1536;-74
2023/11/16 11:37:38;;;;;;;;;;;;;;;21.06;29.63;97961.34;4996884;28;1056;-74
2023/11/16 11:40:05;;;;;;;;;;;;;;;21.37;29.27;97966.66;4997014;28;1989;-73
2023/11/16 11:42:37;;;;;;;;;;;;;;;21.22;29.09;97965.41;4996260;28;1047;-75
2023/11/16 11:45:04;;;;;;;;;;;;;;;21.02;29.58;97968.31;4996614;28;929;-75
2023/11/16 11:47:31;;;;;;;;;;;;;;;21.07;29.34;97971.41;4996621;28;1014;-75
2023/11/16 11:49:57;;;;;;;;;;;;;;;21.09;29.57;97968.16;4980663;28;1238;-75
2023/11/16 11:52:24;;;;;;;;;;;;;;;21.39;29.29;97974.69;4979225;28;1180;-76
2023/11/16 11:54:50;;;;;;;;;;;;;;;21.28;29.17;97981.41;4996458;28;984;-75
2023/11/16 11:57:16;;;;;;;;;;;;;;;21.31;29.38;97977.72;5015656;28;961;-75
2023/11/16 11:59:43;;;;;;;;;;;;;;;21.44;29.15;97979.81;4999076;28;1906;-76
2023/11/16 12:02:09;;;;;;;;;;;;;;;21.28;29.09;97989.09;4999509;28;1450;-75
2023/11/16 12:04:35;;;;;;;;;;;;;;;21.03;29.76;97998.19;5001810;28;1185;-76
2023/11/16 12:07:07;;;;;;;;;;;;;;;20.80;29.82;97991.47;5019494;28;1016;-76
2023/11/16 12:09:33;;;;;;;;;;;;;;;20.98;29.43;97998.72;5003279;28;947;-76
2023/11/16 12:12:03;;;;;;;;;;;;;;;21.10;29.18;98000.88;5019197;28;989;-76
2023/11/16 12:14:33;;;;;;;;;;;;;;;21.19;29.16;97995.41;5035448;28;973;-76
2023/11/16 12:16:58;;;;;;;;;;;;;;;21.26;29.11;97998.03;5018924;28;1030;-76
2023/11/16 12:19:27;;;;;;;;;;;;;;;21.31;29.04;98008.84;5003555;28;1898;-76
2023/11/16 12:21:52;;;;;;;;;;;;;;;21.43;28.79;98012.19;5038121;28;1895;-76
2023/11/16 12:24:20;;;;;;;;;;;;;;;21.51;28.85;98007.97;5038637;28;1879;-76
2023/11/16 12:26:45;;;;;;;;;;;;;;;21.53;28.50;98003.44;5052651;28;1584;-76
2023/11/16 12:29:15;;;;;;;;;;;;;;;21.26;29.00;98006.53;5038194;28;1475;-76
2023/11/16 12:31:40;;;;;;;;;;;;;;;21.24;28.59;97994.88;5006073;28;1571;-75
2023/11/16 12:34:06;;;;;;;;;;;;;;;21.18;28.89;97996.59;5022042;28;1733;-76
2023/11/16 12:36:33;;;;;;;;;;;;;;;21.23;28.53;98004.56;5038691;28;1919;-76
2023/11/16 12:38:59;;;;;;;;;;;;;;;20.95;29.30;98002.44;5056644;28;2009;-76
2023/11/16 12:41:26;;;;;;;;;;;;;;;21.24;28.61;97997.69;5055030;28;1401;-76
2023/11/16 12:43:51;;;;;;;;;;;;;;;21.50;28.34;97997.84;5056072;28;1628;-76
2023/11/16 12:46:19;;;;;;;;;;;;;;;21.52;28.08;98004.69;5054705;28;1509;-75
2023/11/16 12:48:44;;;;;;;;;;;;;;;21.19;28.55;97988.91;5054798;28;1702;-76
2023/11/16 12:51:12;;;;;;;;;;;;;;;21.07;28.62;97993.25;5054953;28;1770;-76
2023/11/16 12:53:39;;;;;;;;;;;;;;;21.28;28.29;97997.59;5034198;28;1738;-75
2023/11/16 12:56:06;;;;;;;;;;;;;;;21.37;27.93;97994.16;5018383;28;957;-76
2023/11/16 12:58:33;;;;;;;;;;;;;;;20.93;28.63;98002.06;5038000;28;1967;-76
2023/11/16 13:00:58;;;;;;;;;;;;;;;21.15;29.19;98011.66;5021529;28;1054;-75